createdAt,value
2023-01-10T00:01:56.962Z,5.90
2023-01-10T00:04:26.860Z,5.80
2023-01-10T00:06:54.929Z,5.80
2023-01-10T00:09:23.000Z,5.70
2023-01-10T00:12:09.121Z,5.60
2023-01-10T00:14:37.084Z,5.50
2023-01-10T00:17:05.473Z,5.60
2023-01-10T00:19:33.343Z,5.60
2023-01-10T00:22:08.325Z,5.60
2023-01-10T00:24:36.575Z,5.70
2023-01-10T00:27:04.981Z,5.70
2023-01-10T00:29:34.392Z,5.50
2023-01-10T00:32:02.400Z,5.40
2023-01-10T00:34:31.335Z,5.60
2023-01-10T00:36:59.480Z,5.60
2023-01-10T00:39:28.210Z,5.50
2023-01-10T00:42:14.330Z,5.50
2023-01-10T00:44:42.331Z,5.40
2023-01-10T00:47:10.201Z,5.40
2023-01-10T00:49:38.156Z,5.30
2023-01-10T00:52:06.119Z,5.30
2023-01-10T00:54:34.170Z,5.50
2023-01-10T00:57:03.177Z,5.50
2023-01-10T00:59:31.382Z,5.60
2023-01-10T01:01:59.383Z,5.50
2023-01-10T01:04:27.407Z,5.40
2023-01-10T01:06:55.284Z,5.40
2023-01-10T01:09:23.371Z,5.40
2023-01-10T01:11:51.154Z,5.40
2023-01-10T01:14:19.087Z,5.40
2023-01-10T01:16:47.019Z,5.50
2023-01-10T01:19:15.010Z,5.50
2023-01-10T01:21:42.991Z,5.40
2023-01-10T01:24:11.344Z,5.20
2023-01-10T01:26:40.104Z,5.30
2023-01-10T01:29:08.692Z,5.40
2023-01-10T01:31:36.619Z,5.40
2023-01-10T01:34:04.690Z,5.40
2023-01-10T01:36:32.732Z,5.30
2023-01-10T01:39:00.733Z,5.20
2023-01-10T01:41:46.956Z,5.10
2023-01-10T01:44:17.855Z,5.00
2023-01-10T01:47:09.307Z,5.00
2023-01-10T01:49:40.980Z,5.10
2023-01-10T01:52:23.161Z,5.00
2023-01-10T01:54:55.093Z,4.90
2023-01-10T01:57:27.428Z,4.90
2023-01-10T01:59:56.414Z,4.90
2023-01-10T02:02:37.502Z,4.90
2023-01-10T02:05:13.171Z,4.80
2023-01-10T02:07:43.981Z,4.80
2023-01-10T02:10:34.482Z,4.60
2023-01-10T02:13:06.051Z,4.70
2023-01-10T02:15:34.455Z,4.70
2023-01-10T02:18:03.881Z,4.70
2023-01-10T02:20:48.422Z,4.70
2023-01-10T02:23:37.039Z,4.60
2023-01-10T02:26:39.335Z,4.60
2023-01-10T02:29:38.161Z,4.50
2023-01-10T02:32:43.766Z,4.40
2023-01-10T02:35:28.188Z,4.40
2023-01-10T02:38:41.987Z,4.20
2023-01-10T02:41:29.452Z,4.30
2023-01-10T02:44:32.141Z,4.00
2023-01-10T02:47:02.902Z,4.10
2023-01-10T02:49:30.851Z,3.90
2023-01-10T02:51:59.005Z,3.90
2023-01-10T02:54:30.918Z,4.00
2023-01-10T02:57:24.944Z,3.90
2023-01-10T03:00:28.445Z,3.70
2023-01-10T03:03:22.098Z,3.40
2023-01-10T03:06:08.127Z,3.40
2023-01-10T03:08:39.397Z,3.50
2023-01-10T03:11:09.605Z,3.70
2023-01-10T03:13:49.842Z,3.70
2023-01-10T03:16:20.832Z,3.90
2023-01-10T03:18:56.699Z,3.80
2023-01-10T03:21:25.762Z,3.80
2023-01-10T03:24:01.167Z,3.70
2023-01-10T03:26:48.440Z,3.70
2023-01-10T03:29:22.705Z,3.80
2023-01-10T03:31:55.617Z,3.90
2023-01-10T03:34:25.345Z,3.90
2023-01-10T03:37:11.384Z,4.00
2023-01-10T03:40:05.338Z,4.10
2023-01-10T03:43:02.658Z,4.10
2023-01-10T03:46:01.418Z,4.00
2023-01-10T03:48:34.373Z,4.10
2023-01-10T03:51:05.661Z,4.40
2023-01-10T03:53:37.402Z,4.50
2023-01-10T03:56:06.309Z,4.60
2023-01-10T03:58:34.497Z,4.70
2023-01-10T04:01:02.596Z,4.80
2023-01-10T04:03:30.712Z,4.80
2023-01-10T04:05:58.651Z,4.90
2023-01-10T04:08:26.646Z,4.90
2023-01-10T04:10:54.819Z,4.80
2023-01-10T04:13:22.900Z,4.90
2023-01-10T04:15:51.742Z,4.90
2023-01-10T04:18:20.508Z,5.00
2023-01-10T04:20:49.207Z,5.10
2023-01-10T04:23:18.194Z,5.20
2023-01-10T04:25:48.267Z,5.30
2023-01-10T04:28:16.179Z,5.30
2023-01-10T04:30:44.100Z,5.30
2023-01-10T04:33:12.900Z,5.30
2023-01-10T04:35:40.868Z,5.30
2023-01-10T04:38:08.820Z,5.10
2023-01-10T04:40:36.791Z,5.10
2023-01-10T04:43:04.804Z,5.10
2023-01-10T04:45:32.753Z,5.20
2023-01-10T04:48:00.719Z,5.30
2023-01-10T04:50:28.793Z,5.20
2023-01-10T04:52:56.815Z,5.10
2023-01-10T04:55:24.931Z,5.20
2023-01-10T04:57:52.821Z,5.30
2023-01-10T05:00:21.216Z,5.30
2023-01-10T05:02:49.660Z,5.20
2023-01-10T05:05:17.601Z,5.20
2023-01-10T05:07:47.427Z,5.20
2023-01-10T05:10:15.755Z,5.20
2023-01-10T05:12:43.739Z,5.20
2023-01-10T05:15:12.291Z,5.40
2023-01-10T05:17:43.715Z,5.50
2023-01-10T05:20:13.691Z,5.60
2023-01-10T05:22:41.531Z,5.60
2023-01-10T05:25:09.937Z,5.70
2023-01-10T05:27:42.415Z,5.70
2023-01-10T05:30:13.958Z,5.60
2023-01-10T05:32:42.174Z,5.40
2023-01-10T05:35:11.695Z,5.40
2023-01-10T05:37:40.265Z,5.30
2023-01-10T05:40:09.099Z,5.70
2023-01-10T05:42:36.885Z,6.40
2023-01-10T05:45:05.918Z,7.00
2023-01-10T05:47:33.842Z,7.50
2023-01-10T05:50:01.913Z,7.50
2023-01-10T05:52:29.793Z,7.50
2023-01-10T05:54:57.502Z,7.10
2023-01-10T05:57:25.469Z,6.70
2023-01-10T05:59:53.513Z,6.30
2023-01-10T06:02:21.758Z,5.80
2023-01-10T06:04:49.976Z,5.60
2023-01-10T06:07:18.160Z,5.50
2023-01-10T06:09:46.876Z,5.30
2023-01-10T06:12:14.942Z,5.10
2023-01-10T06:14:42.897Z,5.10
2023-01-10T06:17:11.904Z,5.10
2023-01-10T06:19:39.942Z,5.00
2023-01-10T06:22:07.892Z,5.10
2023-01-10T06:24:36.300Z,5.10
2023-01-10T06:27:04.453Z,5.10
2023-01-10T06:29:32.687Z,5.30
2023-01-10T06:32:00.777Z,5.30
2023-01-10T06:34:28.584Z,5.30
2023-01-10T06:36:56.676Z,5.20
2023-01-10T06:39:24.670Z,5.10
2023-01-10T06:41:52.638Z,5.00
2023-01-10T06:44:20.633Z,4.90
2023-01-10T06:46:48.586Z,4.90
2023-01-10T06:49:16.551Z,4.90
2023-01-10T06:51:44.491Z,5.20
2023-01-10T06:54:12.473Z,5.30
2023-01-10T06:56:40.412Z,5.30
2023-01-10T06:59:09.276Z,5.30
2023-01-10T07:01:37.334Z,5.30
2023-01-10T07:04:05.655Z,5.30
2023-01-10T07:06:38.064Z,5.20
2023-01-10T07:09:06.887Z,5.10
2023-01-10T07:11:36.025Z,5.00
2023-01-10T07:14:04.382Z,4.90
2023-01-10T07:16:32.302Z,4.90
2023-01-10T07:19:00.807Z,4.80
2023-01-10T07:21:28.766Z,4.70
2023-01-10T07:23:57.457Z,4.80
2023-01-10T07:26:25.631Z,4.70
2023-01-10T07:28:54.486Z,4.70
2023-01-10T07:31:25.992Z,4.70
2023-01-10T07:33:54.254Z,4.70
2023-01-10T07:36:22.538Z,4.80
2023-01-10T07:38:50.487Z,4.70
2023-01-10T07:41:18.667Z,4.50
2023-01-10T07:43:46.585Z,4.60
2023-01-10T07:46:14.703Z,4.50
2023-01-10T07:48:42.499Z,4.60
2023-01-10T07:51:10.784Z,4.60
2023-01-10T07:53:39.065Z,4.50
2023-01-10T07:56:07.466Z,4.60
2023-01-10T07:58:35.856Z,4.80
2023-01-10T08:01:05.687Z,4.80
2023-01-10T08:03:34.529Z,4.90
2023-01-10T08:06:05.280Z,4.90
2023-01-10T08:08:36.411Z,4.90
2023-01-10T08:11:04.783Z,5.00
2023-01-10T08:13:33.168Z,5.10
2023-01-10T08:16:06.417Z,5.30
2023-01-10T08:18:34.972Z,5.50
2023-01-10T08:21:03.038Z,5.50
2023-01-10T08:23:32.656Z,5.40
2023-01-10T08:26:00.747Z,5.50
2023-01-10T08:28:29.460Z,5.50
2023-01-10T08:30:57.743Z,5.60
2023-01-10T08:33:27.670Z,5.70
2023-01-10T08:35:55.744Z,6.00
2023-01-10T08:38:23.714Z,6.20
2023-01-10T08:40:51.605Z,6.30
2023-01-10T08:43:19.446Z,6.30
2023-01-10T08:45:47.505Z,6.30
2023-01-10T08:48:15.531Z,6.40
2023-01-10T08:50:43.629Z,6.50
2023-01-10T08:53:13.950Z,7.00
2023-01-10T08:55:41.962Z,7.20
2023-01-10T08:58:11.437Z,7.40
2023-01-10T09:00:39.449Z,7.50
2023-01-10T09:03:08.959Z,7.60
2023-01-10T09:05:36.999Z,7.80
2023-01-10T09:08:05.786Z,8.00
2023-01-10T09:10:34.062Z,8.20
2023-01-10T09:13:02.206Z,8.30
2023-01-10T09:15:35.983Z,8.50
2023-01-10T09:18:06.672Z,8.70
2023-01-10T09:20:36.890Z,9.00
2023-01-10T09:23:10.063Z,9.20
2023-01-10T09:25:38.579Z,9.50
2023-01-10T09:28:06.781Z,9.70
2023-01-10T09:30:34.714Z,10.00
2023-01-10T09:33:03.551Z,10.20
2023-01-10T09:35:32.973Z,10.40
2023-01-10T09:38:03.568Z,10.70
2023-01-10T09:40:34.428Z,10.80
2023-01-10T09:43:27.535Z,11.10
2023-01-10T09:46:10.056Z,11.30
2023-01-10T09:49:00.370Z,11.40
2023-01-10T09:51:41.687Z,11.60
2023-01-10T09:54:35.445Z,11.90
2023-01-10T09:57:03.815Z,12.20
2023-01-10T09:59:38.429Z,12.30
2023-01-10T10:02:31.159Z,12.40
2023-01-10T10:05:18.504Z,12.30
2023-01-10T10:07:51.290Z,12.40
2023-01-10T10:10:27.864Z,12.50
2023-01-10T10:13:11.726Z,12.70
2023-01-10T10:16:10.439Z,12.90
2023-01-10T10:18:52.165Z,13.00
2023-01-10T10:21:46.540Z,13.10
2023-01-10T10:24:21.939Z,13.20
2023-01-10T10:26:58.739Z,13.30
2023-01-10T10:29:49.547Z,13.20
2023-01-10T10:32:42.043Z,13.20
2023-01-10T10:35:37.429Z,13.20
2023-01-10T10:38:14.704Z,13.30
2023-01-10T10:40:45.327Z,13.20
2023-01-10T10:43:22.061Z,13.20
2023-01-10T10:45:55.993Z,13.20
2023-01-10T10:48:39.825Z,13.10
2023-01-10T10:51:10.880Z,13.10
2023-01-10T10:53:38.720Z,13.30
2023-01-10T10:56:10.898Z,13.30
2023-01-10T10:58:42.282Z,13.40
2023-01-10T11:01:19.131Z,13.40
2023-01-10T11:03:54.433Z,13.50
2023-01-10T11:06:25.995Z,13.60
2023-01-10T11:08:57.793Z,13.60
2023-01-10T11:11:36.200Z,13.70
2023-01-10T11:14:07.114Z,13.80
2023-01-10T11:16:40.061Z,13.90
2023-01-10T11:19:23.307Z,14.00
2023-01-10T11:22:00.105Z,14.10
2023-01-10T11:24:43.811Z,14.10
2023-01-10T11:27:22.469Z,14.20
2023-01-10T11:29:57.670Z,14.40
2023-01-10T11:32:34.213Z,14.50
2023-01-10T11:35:09.954Z,14.60
2023-01-10T11:37:37.947Z,14.70
2023-01-10T11:40:25.618Z,14.80
2023-01-10T11:42:58.999Z,14.70
2023-01-10T11:45:33.767Z,14.70
2023-01-10T11:49:05.678Z,14.80
2023-01-10T11:51:40.889Z,14.90
2023-01-10T11:54:15.256Z,15.00
2023-01-10T11:56:46.116Z,15.10
2023-01-10T11:59:17.755Z,15.30
2023-01-10T12:01:59.690Z,15.30
2023-01-10T12:04:31.413Z,15.40
2023-01-10T12:07:11.317Z,15.40
2023-01-10T12:10:03.907Z,15.40
2023-01-10T12:12:34.658Z,15.40
2023-01-10T12:15:32.028Z,15.40
2023-01-10T12:18:02.833Z,15.50
2023-01-10T12:20:35.311Z,15.60
2023-01-10T12:23:10.954Z,15.80
2023-01-10T12:25:43.196Z,15.70
2023-01-10T12:28:22.948Z,16.00
2023-01-10T12:30:53.537Z,15.90
2023-01-10T12:33:26.488Z,15.70
2023-01-10T12:36:11.331Z,15.60
2023-01-10T12:39:04.042Z,15.60
2023-01-10T12:42:15.282Z,15.50
2023-01-10T12:44:45.980Z,15.30
2023-01-10T12:47:25.743Z,15.20
2023-01-10T12:49:59.857Z,15.20
2023-01-10T12:52:58.215Z,15.20
2023-01-10T12:55:31.408Z,15.40
2023-01-10T12:58:02.928Z,15.40
2023-01-10T13:00:48.284Z,15.40
2023-01-10T13:03:21.621Z,15.50
2023-01-10T13:05:52.246Z,15.60
2023-01-10T13:08:24.092Z,15.60
2023-01-10T13:10:58.070Z,15.60
2023-01-10T13:13:43.013Z,15.60
2023-01-10T13:16:40.654Z,15.60
2023-01-10T13:19:11.642Z,15.70
2023-01-10T13:21:42.429Z,15.60
2023-01-10T13:24:23.192Z,15.70
2023-01-10T13:27:03.510Z,15.70
2023-01-10T13:29:42.742Z,15.60
2023-01-10T13:32:38.993Z,15.60
2023-01-10T13:35:17.390Z,15.60
2023-01-10T13:37:52.872Z,15.60
2023-01-10T13:40:31.204Z,15.70
2023-01-10T13:43:38.489Z,15.70
2023-01-10T13:46:18.893Z,15.80
2023-01-10T13:49:00.607Z,15.70
2023-01-10T13:51:28.831Z,15.60
2023-01-10T13:54:05.703Z,15.40
2023-01-10T13:56:42.281Z,15.30
2023-01-10T13:59:51.987Z,15.40
2023-01-10T14:02:34.804Z,15.40
2023-01-10T14:05:18.212Z,15.20
2023-01-10T14:07:53.269Z,15.20
2023-01-10T14:10:30.101Z,15.00
2023-01-10T14:13:09.522Z,14.80
2023-01-10T14:15:46.735Z,14.70
2023-01-10T14:18:27.294Z,14.60
2023-01-10T14:21:07.571Z,14.50
2023-01-10T14:23:48.219Z,14.40
2023-01-10T14:26:38.174Z,14.40
2023-01-10T14:29:15.915Z,14.30
2023-01-10T14:31:47.486Z,14.40
2023-01-10T14:34:28.159Z,14.30
2023-01-10T14:37:03.499Z,14.40
2023-01-10T14:39:31.560Z,14.40
2023-01-10T14:42:09.310Z,14.30
2023-01-10T14:44:58.894Z,14.20
2023-01-10T14:47:26.823Z,14.10
2023-01-10T14:49:59.800Z,14.10
2023-01-10T14:52:28.518Z,14.00
2023-01-10T14:55:17.033Z,13.90
2023-01-10T14:58:01.405Z,14.00
2023-01-10T15:00:36.930Z,13.90
2023-01-10T15:03:05.168Z,13.80
2023-01-10T15:05:45.276Z,13.60
2023-01-10T15:08:28.444Z,13.50
2023-01-10T15:11:09.446Z,13.50
2023-01-10T15:13:49.085Z,13.40
2023-01-10T15:18:49.428Z,13.30
2023-01-10T15:21:22.306Z,13.30
2023-01-10T15:23:52.196Z,13.20
2023-01-10T15:26:33.588Z,13.10
2023-01-10T15:29:20.834Z,13.10
2023-01-10T15:31:49.462Z,13.00
2023-01-10T15:34:21.801Z,12.90
2023-01-10T15:36:55.057Z,12.90
2023-01-10T15:39:28.413Z,12.90
2023-01-10T15:42:08.775Z,12.70
2023-01-10T15:44:52.633Z,12.70
2023-01-10T15:47:49.780Z,12.50
2023-01-10T15:50:32.479Z,12.50
2023-01-10T15:53:19.387Z,12.40
2023-01-10T15:55:54.621Z,12.40
2023-01-10T15:58:33.107Z,12.30
2023-01-10T16:01:02.467Z,12.30
2023-01-10T16:03:38.688Z,12.00
2023-01-10T16:06:12.641Z,11.80
2023-01-10T16:08:40.925Z,11.90
2023-01-10T16:11:44.104Z,11.80
2023-01-10T16:14:12.258Z,11.70
2023-01-10T16:16:40.623Z,11.60
2023-01-10T16:19:09.092Z,11.60
2023-01-10T16:21:43.607Z,11.60
2023-01-10T16:24:24.130Z,11.50
2023-01-10T16:26:52.607Z,11.40
2023-01-10T16:29:24.804Z,11.30
2023-01-10T16:31:53.699Z,11.20
2023-01-10T16:34:22.072Z,11.30
2023-01-10T16:36:49.979Z,11.20
2023-01-10T16:39:20.327Z,11.20
2023-01-10T16:42:06.982Z,11.10
2023-01-10T16:44:35.442Z,11.00
2023-01-10T16:47:06.382Z,10.80
2023-01-10T16:49:35.145Z,10.80
2023-01-10T16:52:04.010Z,10.60
2023-01-10T16:54:35.458Z,10.50
2023-01-10T16:57:03.305Z,10.50
2023-01-10T16:59:31.244Z,10.30
2023-01-10T17:02:00.610Z,10.10
2023-01-10T17:04:35.784Z,10.00
2023-01-10T17:07:03.832Z,9.90
2023-01-10T17:09:31.912Z,9.80
2023-01-10T17:12:12.627Z,9.50
2023-01-10T17:14:40.834Z,9.50
2023-01-10T17:17:11.112Z,9.50
2023-01-10T17:19:39.883Z,9.50
2023-01-10T17:22:07.798Z,9.50
2023-01-10T17:24:35.801Z,9.70
2023-01-10T17:27:03.722Z,9.70
2023-01-10T17:29:33.411Z,9.90
2023-01-10T17:32:01.637Z,10.00
2023-01-10T17:34:31.421Z,10.10
2023-01-10T17:36:59.352Z,10.40
2023-01-10T17:39:27.440Z,10.50
2023-01-10T17:41:55.481Z,10.50
2023-01-10T17:44:23.709Z,10.60
2023-01-10T17:46:52.424Z,10.70
2023-01-10T17:49:20.479Z,10.70
2023-01-10T17:51:49.110Z,10.60
2023-01-10T17:54:17.279Z,10.60
2023-01-10T17:56:45.257Z,10.50
2023-01-10T17:59:13.362Z,10.40
2023-01-10T18:01:42.615Z,10.40
2023-01-10T18:04:10.728Z,10.30
2023-01-10T18:06:38.984Z,10.10
2023-01-10T18:09:07.887Z,10.00
2023-01-10T18:11:36.356Z,9.90
2023-01-10T18:14:24.556Z,10.30
2023-01-10T18:16:52.779Z,10.30
2023-01-10T18:19:30.594Z,10.30
2023-01-10T18:22:22.733Z,10.20
2023-01-10T18:24:55.379Z,10.10
2023-01-10T18:27:30.368Z,9.80
2023-01-10T18:29:58.679Z,9.70
2023-01-10T18:32:26.604Z,9.80
2023-01-10T18:34:55.302Z,9.60
2023-01-10T18:37:23.699Z,9.50
2023-01-10T18:39:51.589Z,9.30
2023-01-10T18:42:19.423Z,9.30
2023-01-10T18:44:47.285Z,9.10
2023-01-10T18:47:15.210Z,9.00
2023-01-10T18:49:43.086Z,8.80
2023-01-10T18:52:11.089Z,8.70
2023-01-10T18:54:39.206Z,8.60
2023-01-10T18:57:07.290Z,8.50
2023-01-10T18:59:35.763Z,8.50
2023-01-10T19:02:03.760Z,8.40
2023-01-10T19:04:31.931Z,8.20
2023-01-10T19:06:59.901Z,8.40
2023-01-10T19:09:28.429Z,8.60
2023-01-10T19:11:56.551Z,8.50
2023-01-10T19:14:24.525Z,8.30
2023-01-10T19:16:52.497Z,8.30
2023-01-10T19:19:20.473Z,8.00
2023-01-10T19:21:48.485Z,7.90
2023-01-10T19:24:25.254Z,8.00
2023-01-10T19:26:53.576Z,7.90
2023-01-10T19:29:22.609Z,7.80
2023-01-10T19:31:50.982Z,7.70
2023-01-10T19:34:19.205Z,7.80
2023-01-10T19:36:47.193Z,7.90
2023-01-10T19:39:15.390Z,7.80
2023-01-10T19:41:43.772Z,7.70
2023-01-10T19:44:14.228Z,7.80
2023-01-10T19:46:44.335Z,7.70
2023-01-10T19:49:17.944Z,7.20
2023-01-10T19:51:49.519Z,7.00
2023-01-10T19:54:18.437Z,6.80
2023-01-10T19:56:46.389Z,6.80
2023-01-10T19:59:15.156Z,6.90
2023-01-10T20:01:43.560Z,7.00
2023-01-10T20:04:11.969Z,7.30
2023-01-10T20:06:42.064Z,7.50
2023-01-10T20:09:12.847Z,7.60
2023-01-10T20:11:43.263Z,7.60
2023-01-10T20:14:15.412Z,7.50
2023-01-10T20:16:43.798Z,7.40
2023-01-10T20:19:12.646Z,7.30
2023-01-10T20:21:42.731Z,7.40
2023-01-10T20:24:17.324Z,7.30
2023-01-10T20:26:46.698Z,7.10
2023-01-10T20:29:15.514Z,7.20
2023-01-10T20:31:46.843Z,7.20
2023-01-10T20:34:14.976Z,7.10
2023-01-10T20:36:42.902Z,7.00
2023-01-10T20:39:11.271Z,6.90
2023-01-10T20:41:39.671Z,6.80
2023-01-10T20:44:07.634Z,6.80
2023-01-10T20:46:37.139Z,6.90
2023-01-10T20:49:05.610Z,7.00
2023-01-10T20:51:38.678Z,7.00
2023-01-10T20:54:08.684Z,6.90
2023-01-10T20:56:37.717Z,7.00
2023-01-10T20:59:06.325Z,6.90
2023-01-10T21:01:35.746Z,6.60
2023-01-10T21:04:05.825Z,6.50
2023-01-10T21:06:34.632Z,6.60
2023-01-10T21:09:03.310Z,6.60
2023-01-10T21:11:32.441Z,6.60
2023-01-10T21:14:01.647Z,6.40
2023-01-10T21:16:29.736Z,6.40
2023-01-10T21:19:00.643Z,6.20
2023-01-10T21:21:28.561Z,6.50
2023-01-10T21:23:56.507Z,6.60
2023-01-10T21:26:24.674Z,6.30
2023-01-10T21:28:52.729Z,6.00
2023-01-10T21:31:22.360Z,5.90
2023-01-10T21:33:50.507Z,6.00
2023-01-10T21:36:18.745Z,6.00
2023-01-10T21:38:46.822Z,6.10
2023-01-10T21:41:35.766Z,6.20
2023-01-10T21:44:05.431Z,6.20
2023-01-10T21:46:33.733Z,6.30
2023-01-10T21:49:02.403Z,6.40
2023-01-10T21:51:30.501Z,6.40
2023-01-10T21:53:59.534Z,6.40
2023-01-10T21:56:27.708Z,6.50
2023-01-10T21:58:56.314Z,6.30
2023-01-10T22:01:24.340Z,6.20
2023-01-10T22:03:52.293Z,6.20
2023-01-10T22:06:20.450Z,6.20
2023-01-10T22:08:49.867Z,6.10
2023-01-10T22:11:17.847Z,5.90
2023-01-10T22:13:46.073Z,5.90
2023-01-10T22:16:14.176Z,5.80
2023-01-10T22:18:44.166Z,5.70
2023-01-10T22:21:12.832Z,5.50
2023-01-10T22:23:43.283Z,5.70
2023-01-10T22:26:13.475Z,5.80
2023-01-10T22:28:42.219Z,5.80
2023-01-10T22:31:10.314Z,5.70
2023-01-10T22:33:38.592Z,5.70
2023-01-10T22:36:08.792Z,6.00
2023-01-10T22:38:36.900Z,6.20
2023-01-10T22:41:12.870Z,6.30
2023-01-10T22:43:41.330Z,6.10
2023-01-10T22:46:09.953Z,6.00
2023-01-10T22:48:39.035Z,5.90
2023-01-10T22:51:07.766Z,5.50
2023-01-10T22:53:35.951Z,5.30
2023-01-10T22:56:06.526Z,5.00
2023-01-10T22:58:34.570Z,5.20
2023-01-10T23:01:07.295Z,5.30
2023-01-10T23:03:35.654Z,5.00
2023-01-10T23:06:03.696Z,4.90
2023-01-10T23:08:32.121Z,5.00
2023-01-10T23:11:00.624Z,5.10
2023-01-10T23:13:28.627Z,5.20
2023-01-10T23:16:02.331Z,5.10
2023-01-10T23:18:30.837Z,5.00
2023-01-10T23:20:59.159Z,5.10
2023-01-10T23:23:28.089Z,5.00
2023-01-10T23:26:04.344Z,5.10
2023-01-10T23:29:02.372Z,5.10
2023-01-10T23:31:32.170Z,4.80
2023-01-10T23:34:00.374Z,4.70
2023-01-10T23:36:28.357Z,4.80
2023-01-10T23:38:56.540Z,4.70
2023-01-10T23:41:25.036Z,4.80
2023-01-10T23:43:53.411Z,4.90
2023-01-10T23:46:21.814Z,4.90
2023-01-10T23:48:50.153Z,5.00
2023-01-10T23:51:18.291Z,5.00
2023-01-10T23:53:46.416Z,4.90
2023-01-10T23:56:15.376Z,4.80
2023-01-10T23:58:43.537Z,4.70
